Time;durP1;ratioP1;P1;durP2;ratioP2;P2;SDS_P1;SDS_P2;PMS_P1;PMS_P2;Temp;Humidity;BMP_temperature;BMP_pressure;BME280_temperature;BME280_humidity;BME280_pressure;Samples;Min_cycle;Max_cycle;Signal;HPM_P1;HPM_P2
2022/09/23 00:01:57;;;;;;;1.47;1.37;;;;;;;;;;5045478;28;20208;-62
2022/09/23 00:04:24;;;;;;;1.90;1.30;;;;;;;;;;5044915;28;20227;-62
2022/09/23 00:06:53;;;;;;;0.90;0.90;;;;;;;;;;5045311;28;20203;-63
2022/09/23 00:09:20;;;;;;;1.40;1.37;;;;;;;;;;5045970;28;20200;-63
2022/09/23 00:11:47;;;;;;;1.40;1.30;;;;;;;;;;5048026;28;20204;-63
2022/09/23 00:14:14;;;;;;;1.50;1.40;;;;;;;;;;5047812;28;20261;-63
2022/09/23 00:16:41;;;;;;;3.00;1.47;;;;;;;;;;5045797;28;20666;-62
2022/09/23 00:19:08;;;;;;;2.00;1.47;;;;;;;;;;5045872;28;20215;-63
2022/09/23 00:21:35;;;;;;;1.30;1.30;;;;;;;;;;5044326;28;20363;-62
2022/09/23 00:24:03;;;;;;;1.37;1.30;;;;;;;;;;5046232;28;20223;-62
2022/09/23 00:26:30;;;;;;;1.87;1.73;;;;;;;;;;5044192;28;20732;-62
2022/09/23 00:28:57;;;;;;;1.13;1.13;;;;;;;;;;5045656;28;20213;-62
2022/09/23 00:31:26;;;;;;;1.20;1.20;;;;;;;;;;5045674;28;20269;-63
2022/09/23 00:33:54;;;;;;;1.33;1.30;;;;;;;;;;5041923;28;20232;-63
2022/09/23 00:36:21;;;;;;;1.60;1.60;;;;;;;;;;5047344;28;20222;-63
2022/09/23 00:38:48;;;;;;;3.47;1.57;;;;;;;;;;5047265;28;20208;-63
2022/09/23 00:41:16;;;;;;;1.67;1.57;;;;;;;;;;5046226;28;20670;-62
2022/09/23 00:43:44;;;;;;;1.73;1.63;;;;;;;;;;5047155;28;20282;-63
2022/09/23 00:46:12;;;;;;;6.13;1.43;;;;;;;;;;5047568;28;20830;-63
2022/09/23 00:48:40;;;;;;;1.57;1.47;;;;;;;;;;5043700;28;20622;-63
2022/09/23 00:51:09;;;;;;;1.60;1.50;;;;;;;;;;5047701;28;20625;-63
2022/09/23 00:53:36;;;;;;;1.30;1.30;;;;;;;;;;5045204;28;20207;-62
2022/09/23 00:56:06;;;;;;;1.80;1.57;;;;;;;;;;5045846;28;20216;-63
2022/09/23 00:58:35;;;;;;;1.50;1.50;;;;;;;;;;5047494;28;20302;-63
2022/09/23 01:01:03;;;;;;;1.27;1.27;;;;;;;;;;5047145;28;20214;-63
2022/09/23 01:03:30;;;;;;;1.30;1.30;;;;;;;;;;5043389;28;20786;-63
2022/09/23 01:05:57;;;;;;;1.60;1.50;;;;;;;;;;5045660;28;20661;-63
2022/09/23 01:08:25;;;;;;;1.87;1.70;;;;;;;;;;5046795;28;20684;-63
2022/09/23 01:10:55;;;;;;;2.53;1.20;;;;;;;;;;5047947;28;20211;-63
2022/09/23 01:13:25;;;;;;;2.10;1.90;;;;;;;;;;5043194;28;20259;-63
2022/09/23 01:15:56;;;;;;;2.80;1.70;;;;;;;;;;5046392;28;20335;-63
2022/09/23 01:18:30;;;;;;;1.23;1.23;;;;;;;;;;5049181;28;20709;-62
2022/09/23 01:20:58;;;;;;;1.73;1.70;;;;;;;;;;5051367;28;20219;-63
2022/09/23 01:23:47;;;;;;;1.60;1.50;;;;;;;;;;5051119;28;20211;-63
2022/09/23 01:26:27;;;;;;;1.40;1.40;;;;;;;;;;5047116;28;20224;-63
2022/09/23 01:29:10;;;;;;;1.10;1.10;;;;;;;;;;5042687;28;20242;-63
2022/09/23 01:31:42;;;;;;;1.47;1.47;;;;;;;;;;5050908;28;20654;-63
2022/09/23 01:34:11;;;;;;;1.63;1.50;;;;;;;;;;5051210;28;20203;-63
2022/09/23 01:36:40;;;;;;;1.60;1.50;;;;;;;;;;5050618;28;20215;-62
2022/09/23 01:39:10;;;;;;;1.70;1.60;;;;;;;;;;5050558;28;20258;-63
2022/09/23 01:41:48;;;;;;;2.07;1.43;;;;;;;;;;5050452;28;20214;-63
2022/09/23 01:44:19;;;;;;;1.30;1.30;;;;;;;;;;5050195;28;20566;-63
2022/09/23 01:46:50;;;;;;;1.97;1.80;;;;;;;;;;5050278;28;20196;-62
2022/09/23 01:49:20;;;;;;;2.57;1.60;;;;;;;;;;5051026;28;20295;-63
2022/09/23 01:51:49;;;;;;;1.60;1.50;;;;;;;;;;5050217;28;20215;-63
2022/09/23 01:54:19;;;;;;;1.70;1.60;;;;;;;;;;5048703;28;20265;-63
2022/09/23 01:56:48;;;;;;;2.40;1.60;;;;;;;;;;5050238;28;20200;-63
2022/09/23 01:59:20;;;;;;;1.57;1.47;;;;;;;;;;5048243;28;20208;-63
2022/09/23 02:01:51;;;;;;;1.57;1.47;;;;;;;;;;5048594;28;20208;-63
2022/09/23 02:04:21;;;;;;;1.53;1.50;;;;;;;;;;5043515;28;20242;-63
2022/09/23 02:06:50;;;;;;;1.87;1.70;;;;;;;;;;5047325;28;20583;-62
2022/09/23 02:09:19;;;;;;;1.70;1.60;;;;;;;;;;5048535;28;20920;-63
2022/09/23 02:11:48;;;;;;;2.87;2.17;;;;;;;;;;5045943;28;20215;-62
2022/09/23 02:14:19;;;;;;;2.17;2.00;;;;;;;;;;5047003;28;20202;-63
2022/09/23 02:16:47;;;;;;;2.63;2.43;;;;;;;;;;5046369;28;20196;-62
2022/09/23 02:19:18;;;;;;;6.63;3.70;;;;;;;;;;5048967;28;20231;-62
2022/09/23 02:21:47;;;;;;;2.80;2.37;;;;;;;;;;5046212;28;20254;-62
2022/09/23 02:24:15;;;;;;;1.80;1.70;;;;;;;;;;5046965;28;20254;-63
2022/09/23 02:26:47;;;;;;;1.70;1.60;;;;;;;;;;5043490;28;20199;-62
2022/09/23 02:29:19;;;;;;;2.17;2.03;;;;;;;;;;5045235;28;20583;-63
2022/09/23 02:31:49;;;;;;;2.37;2.17;;;;;;;;;;5043847;28;20684;-63
2022/09/23 02:34:21;;;;;;;1.50;1.50;;;;;;;;;;5048148;28;20311;-62
2022/09/23 02:36:53;;;;;;;2.20;2.00;;;;;;;;;;5046574;28;20238;-63
2022/09/23 02:39:23;;;;;;;1.77;1.67;;;;;;;;;;5045922;28;20212;-63
2022/09/23 02:41:56;;;;;;;1.80;1.73;;;;;;;;;;5047696;28;20203;-62
2022/09/23 02:44:23;;;;;;;1.37;1.37;;;;;;;;;;5044673;28;20223;-63
2022/09/23 02:46:51;;;;;;;1.73;1.57;;;;;;;;;;5047692;28;20208;-63
2022/09/23 02:49:20;;;;;;;2.00;1.90;;;;;;;;;;5047000;28;20210;-63
2022/09/23 02:51:48;;;;;;;3.47;2.10;;;;;;;;;;5047367;28;20242;-63
2022/09/23 02:54:17;;;;;;;2.60;1.90;;;;;;;;;;5044884;28;20207;-63
2022/09/23 02:56:44;;;;;;;1.43;1.43;;;;;;;;;;5047355;28;20269;-63
2022/09/23 02:59:12;;;;;;;1.57;1.57;;;;;;;;;;5047014;28;20207;-63
2022/09/23 03:01:44;;;;;;;1.73;1.63;;;;;;;;;;5046856;28;20265;-63
2022/09/23 03:04:16;;;;;;;1.90;1.83;;;;;;;;;;5044190;28;20281;-64
2022/09/23 03:06:50;;;;;;;1.93;1.70;;;;;;;;;;5047236;28;20216;-63
2022/09/23 03:09:20;;;;;;;1.70;1.60;;;;;;;;;;5045970;28;20216;-63
2022/09/23 03:11:51;;;;;;;3.27;1.47;;;;;;;;;;5045573;28;20291;-63
2022/09/23 03:14:20;;;;;;;3.07;1.60;;;;;;;;;;5043964;28;20818;-63
2022/09/23 03:16:51;;;;;;;1.53;1.43;;;;;;;;;;5047473;28;20208;-63
2022/09/23 03:19:21;;;;;;;1.60;1.50;;;;;;;;;;5045321;28;20207;-63
2022/09/23 03:21:54;;;;;;;2.13;1.93;;;;;;;;;;5046667;28;20267;-63
2022/09/23 03:24:22;;;;;;;2.03;1.93;;;;;;;;;;5046573;28;20310;-63
2022/09/23 03:26:50;;;;;;;3.50;1.47;;;;;;;;;;5046269;28;20258;-63
2022/09/23 03:29:19;;;;;;;1.77;1.67;;;;;;;;;;5043101;28;20693;-63
2022/09/23 03:31:46;;;;;;;1.60;1.50;;;;;;;;;;5045089;28;20299;-63
2022/09/23 03:34:14;;;;;;;3.90;1.87;;;;;;;;;;5043957;28;20199;-63
2022/09/23 03:36:50;;;;;;;1.50;1.40;;;;;;;;;;5044140;28;20216;-63
2022/09/23 03:39:24;;;;;;;1.50;1.40;;;;;;;;;;5047503;28;20245;-61
2022/09/23 03:41:53;;;;;;;2.20;1.70;;;;;;;;;;5046124;28;20882;-62
2022/09/23 03:44:22;;;;;;;1.50;1.40;;;;;;;;;;5045091;28;20763;-62
2022/09/23 03:46:49;;;;;;;1.73;1.70;;;;;;;;;;5045651;28;20208;-62
2022/09/23 03:49:18;;;;;;;1.63;1.60;;;;;;;;;;5047513;28;20208;-63
2022/09/23 03:51:45;;;;;;;3.67;1.93;;;;;;;;;;5044713;28;20211;-63
2022/09/23 03:54:12;;;;;;;2.40;1.57;;;;;;;;;;5044209;28;20251;-63
2022/09/23 03:56:41;;;;;;;1.63;1.53;;;;;;;;;;5047720;28;20273;-62
2022/09/23 03:59:08;;;;;;;2.23;2.10;;;;;;;;;;5046926;28;20211;-63
2022/09/23 04:01:35;;;;;;;1.97;1.60;;;;;;;;;;5043593;28;20204;-63
2022/09/23 04:04:02;;;;;;;1.70;1.70;;;;;;;;;;5047107;28;20644;-63
2022/09/23 04:06:29;;;;;;;2.23;1.63;;;;;;;;;;5047243;28;20273;-63
2022/09/23 04:08:57;;;;;;;1.60;1.50;;;;;;;;;;5045211;28;20309;-62
2022/09/23 04:11:24;;;;;;;1.97;1.87;;;;;;;;;;5045624;28;20253;-63
2022/09/23 04:13:52;;;;;;;2.43;2.17;;;;;;;;;;5046681;28;20204;-63
2022/09/23 04:16:19;;;;;;;1.90;1.40;;;;;;;;;;5046483;28;20246;-63
2022/09/23 04:18:46;;;;;;;1.67;1.57;;;;;;;;;;5046567;28;20258;-63
2022/09/23 04:21:13;;;;;;;2.53;1.87;;;;;;;;;;5041430;28;20203;-63
2022/09/23 04:23:40;;;;;;;1.67;1.57;;;;;;;;;;5046534;28;20211;-63
2022/09/23 04:26:07;;;;;;;1.57;1.47;;;;;;;;;;5046734;28;20239;-63
2022/09/23 04:28:35;;;;;;;1.80;1.70;;;;;;;;;;5044913;28;20211;-64
2022/09/23 04:31:05;;;;;;;2.00;1.90;;;;;;;;;;5043364;28;20203;-63
2022/09/23 04:33:32;;;;;;;1.87;1.77;;;;;;;;;;5043010;28;20682;-63
2022/09/23 04:36:00;;;;;;;3.10;2.00;;;;;;;;;;5045558;28;20206;-63
2022/09/23 04:38:27;;;;;;;2.00;1.90;;;;;;;;;;5047108;28;20539;-63
2022/09/23 04:40:54;;;;;;;9.33;1.50;;;;;;;;;;5047199;28;20196;-63
2022/09/23 04:43:22;;;;;;;1.70;1.60;;;;;;;;;;5046948;28;20689;-63
2022/09/23 04:45:57;;;;;;;4.57;1.90;;;;;;;;;;5040437;28;20226;-63
2022/09/23 04:48:26;;;;;;;2.70;1.60;;;;;;;;;;5046715;28;20214;-62
2022/09/23 04:50:53;;;;;;;1.43;1.43;;;;;;;;;;5044699;28;20199;-63
2022/09/23 04:53:20;;;;;;;1.73;1.70;;;;;;;;;;5046012;28;20856;-62
2022/09/23 04:55:51;;;;;;;2.00;1.90;;;;;;;;;;5039549;28;20273;-62
2022/09/23 04:58:18;;;;;;;1.87;1.77;;;;;;;;;;5046314;28;20735;-63
2022/09/23 05:00:45;;;;;;;1.73;1.63;;;;;;;;;;5042675;28;20211;-61
2022/09/23 05:03:12;;;;;;;1.80;1.70;;;;;;;;;;5045072;28;20235;-62
2022/09/23 05:05:41;;;;;;;1.63;1.53;;;;;;;;;;5047473;28;20314;-64
2022/09/23 05:08:08;;;;;;;6.73;1.83;;;;;;;;;;5044596;28;20204;-64
2022/09/23 05:10:35;;;;;;;1.70;1.60;;;;;;;;;;5046638;28;20290;-65
2022/09/23 05:13:02;;;;;;;1.90;1.80;;;;;;;;;;5046356;28;20203;-62
2022/09/23 05:15:29;;;;;;;1.90;1.70;;;;;;;;;;5043459;28;20200;-62
2022/09/23 05:17:58;;;;;;;1.80;1.70;;;;;;;;;;5044269;28;20219;-61
2022/09/23 05:20:25;;;;;;;1.53;1.53;;;;;;;;;;5043677;28;20203;-63
2022/09/23 05:22:54;;;;;;;2.10;1.87;;;;;;;;;;5045342;28;20207;-62
2022/09/23 05:25:22;;;;;;;1.73;1.63;;;;;;;;;;5040309;28;20251;-62
2022/09/23 05:27:51;;;;;;;1.80;1.50;;;;;;;;;;5043597;28;20763;-62
2022/09/23 05:30:18;;;;;;;2.00;1.80;;;;;;;;;;5048028;28;20207;-62
2022/09/23 05:32:45;;;;;;;2.53;2.10;;;;;;;;;;5045039;28;20692;-62
2022/09/23 05:35:12;;;;;;;1.80;1.70;;;;;;;;;;5047746;28;20639;-63
2022/09/23 05:37:39;;;;;;;1.60;1.60;;;;;;;;;;5046026;28;20207;-63
2022/09/23 05:40:08;;;;;;;2.87;2.10;;;;;;;;;;5035421;28;20556;-63
2022/09/23 05:42:35;;;;;;;1.43;1.43;;;;;;;;;;5045072;28;20212;-63
2022/09/23 05:45:02;;;;;;;2.30;1.93;;;;;;;;;;5047584;28;20725;-63
2022/09/23 05:47:29;;;;;;;1.83;1.73;;;;;;;;;;5045772;28;20219;-64
2022/09/23 05:49:56;;;;;;;2.20;2.00;;;;;;;;;;5044673;28;20215;-63
2022/09/23 05:52:24;;;;;;;1.70;1.70;;;;;;;;;;5037407;28;20212;-63
2022/09/23 05:54:51;;;;;;;1.60;1.60;;;;;;;;;;5036833;28;20196;-63
2022/09/23 05:57:20;;;;;;;2.77;2.13;;;;;;;;;;5036288;28;20212;-64
2022/09/23 05:59:47;;;;;;;2.43;2.03;;;;;;;;;;5036974;28;20294;-63
2022/09/23 06:02:14;;;;;;;1.97;1.87;;;;;;;;;;5042334;28;20291;-65
2022/09/23 06:04:42;;;;;;;2.20;2.00;;;;;;;;;;5041165;28;20235;-64
2022/09/23 06:07:09;;;;;;;1.93;1.90;;;;;;;;;;5047700;28;20256;-64
2022/09/23 06:09:36;;;;;;;2.63;1.90;;;;;;;;;;5051084;28;20211;-64
2022/09/23 06:12:03;;;;;;;3.80;1.63;;;;;;;;;;5049583;28;20214;-64
2022/09/23 06:14:31;;;;;;;1.70;1.70;;;;;;;;;;5051525;28;20203;-64
2022/09/23 06:16:58;;;;;;;1.70;1.70;;;;;;;;;;5049680;28;20216;-64
2022/09/23 06:19:25;;;;;;;1.80;1.70;;;;;;;;;;5050887;28;20710;-64
2022/09/23 06:21:52;;;;;;;2.07;1.83;;;;;;;;;;5049214;28;20218;-64
2022/09/23 06:24:20;;;;;;;2.07;1.97;;;;;;;;;;5048752;28;20613;-64
2022/09/23 06:26:48;;;;;;;2.07;1.90;;;;;;;;;;5051171;28;20231;-63
2022/09/23 06:29:15;;;;;;;2.17;2.07;;;;;;;;;;5049007;28;20227;-64
2022/09/23 06:31:43;;;;;;;1.97;1.87;;;;;;;;;;5050500;28;20212;-63
2022/09/23 06:34:10;;;;;;;1.80;1.70;;;;;;;;;;5048403;28;20583;-64
2022/09/23 06:36:37;;;;;;;1.97;1.87;;;;;;;;;;5049766;28;20787;-64
2022/09/23 06:39:05;;;;;;;1.80;1.70;;;;;;;;;;5048315;28;20207;-63
2022/09/23 06:41:32;;;;;;;1.33;1.33;;;;;;;;;;5050260;28;20265;-63
2022/09/23 06:43:59;;;;;;;1.93;1.83;;;;;;;;;;5048509;28;20218;-63
2022/09/23 06:46:26;;;;;;;1.90;1.83;;;;;;;;;;5049810;28;20273;-63
2022/09/23 06:48:55;;;;;;;2.00;1.90;;;;;;;;;;5047455;28;20212;-63
2022/09/23 06:51:22;;;;;;;1.80;1.70;;;;;;;;;;5049891;28;20218;-63
2022/09/23 06:53:50;;;;;;;1.40;1.40;;;;;;;;;;5048310;28;20211;-64
2022/09/23 06:56:18;;;;;;;1.87;1.63;;;;;;;;;;5049752;28;20211;-63
2022/09/23 06:58:45;;;;;;;2.17;2.07;;;;;;;;;;5048017;28;20210;-63
2022/09/23 07:01:14;;;;;;;3.67;2.00;;;;;;;;;;5049930;28;20696;-63
2022/09/23 07:03:42;;;;;;;2.80;1.83;;;;;;;;;;5048147;28;20867;-62
2022/09/23 07:06:10;;;;;;;2.50;1.73;;;;;;;;;;5049453;28;20238;-63
2022/09/23 07:08:37;;;;;;;2.43;1.90;;;;;;;;;;5048137;28;20462;-62
2022/09/23 07:11:05;;;;;;;2.47;1.70;;;;;;;;;;5049731;28;20234;-63
2022/09/23 07:13:33;;;;;;;2.00;1.93;;;;;;;;;;5046947;28;20208;-62
2022/09/23 07:16:01;;;;;;;5.13;1.80;;;;;;;;;;5047034;28;20228;-59
2022/09/23 07:18:29;;;;;;;1.83;1.83;;;;;;;;;;5049152;28;20302;-60
2022/09/23 07:20:57;;;;;;;1.63;1.63;;;;;;;;;;5047557;28;20212;-60
2022/09/23 07:23:26;;;;;;;2.40;1.80;;;;;;;;;;5049019;28;20223;-59
2022/09/23 07:25:53;;;;;;;1.53;1.53;;;;;;;;;;5047319;28;20247;-60
2022/09/23 07:28:20;;;;;;;1.80;1.80;;;;;;;;;;5049244;28;20216;-61
2022/09/23 07:30:47;;;;;;;1.50;1.50;;;;;;;;;;5046538;28;20281;-62
2022/09/23 07:33:14;;;;;;;1.40;1.30;;;;;;;;;;5048179;28;20212;-62
2022/09/23 07:35:42;;;;;;;1.70;1.60;;;;;;;;;;5047091;28;20290;-70
2022/09/23 07:38:10;;;;;;;1.53;1.50;;;;;;;;;;5048954;28;20207;-65
2022/09/23 07:40:38;;;;;;;1.90;1.80;;;;;;;;;;5046055;28;20216;-65
2022/09/23 07:43:06;;;;;;;1.87;1.77;;;;;;;;;;5048272;28;20329;-65
2022/09/23 07:45:33;;;;;;;1.33;1.33;;;;;;;;;;5047214;28;20207;-66
2022/09/23 07:48:02;;;;;;;1.87;1.77;;;;;;;;;;5048436;28;20215;-67
2022/09/23 07:50:31;;;;;;;1.97;1.87;;;;;;;;;;5046704;28;20608;-65
2022/09/23 07:52:58;;;;;;;1.90;1.87;;;;;;;;;;5048582;28;20220;-64
2022/09/23 07:55:25;;;;;;;1.73;1.60;;;;;;;;;;5046512;28;20200;-65
2022/09/23 07:57:53;;;;;;;2.23;2.00;;;;;;;;;;5048035;28;20202;-64
2022/09/23 08:00:20;;;;;;;2.67;2.00;;;;;;;;;;5044470;28;20196;-62
2022/09/23 08:02:47;;;;;;;2.30;2.10;;;;;;;;;;5047033;28;20231;-60
2022/09/23 08:05:15;;;;;;;3.53;2.07;;;;;;;;;;5044508;28;20204;-64
2022/09/23 08:07:42;;;;;;;2.80;1.90;;;;;;;;;;5044054;28;20227;-64
2022/09/23 08:10:09;;;;;;;1.80;1.70;;;;;;;;;;5043915;28;20212;-64
2022/09/23 08:12:36;;;;;;;1.77;1.57;;;;;;;;;;5043161;28;20208;-65
2022/09/23 08:15:06;;;;;;;2.10;2.00;;;;;;;;;;5046172;28;20305;-64
2022/09/23 08:17:33;;;;;;;1.63;1.53;;;;;;;;;;5045064;28;20227;-65
2022/09/23 08:20:00;;;;;;;2.00;1.90;;;;;;;;;;5028447;28;20215;-65
2022/09/23 08:22:27;;;;;;;1.67;1.57;;;;;;;;;;5033835;28;20264;-64
2022/09/23 08:24:54;;;;;;;1.60;1.60;;;;;;;;;;5044277;28;20641;-64
2022/09/23 08:27:21;;;;;;;1.47;1.47;;;;;;;;;;5045690;28;20231;-65
2022/09/23 08:29:48;;;;;;;1.97;1.87;;;;;;;;;;5047899;28;20212;-64
2022/09/23 08:32:16;;;;;;;1.83;1.73;;;;;;;;;;5046168;28;20261;-64
2022/09/23 08:34:43;;;;;;;1.90;1.80;;;;;;;;;;5048346;28;20902;-64
2022/09/23 08:37:10;;;;;;;1.73;1.63;;;;;;;;;;5046462;28;20211;-64
2022/09/23 08:39:38;;;;;;;2.07;1.63;;;;;;;;;;5047557;28;20203;-64
2022/09/23 08:42:09;;;;;;;1.70;1.60;;;;;;;;;;5044185;28;20593;-64
2022/09/23 08:44:43;;;;;;;1.43;1.30;;;;;;;;;;5045968;28;20253;-64
2022/09/23 08:47:13;;;;;;;1.93;1.83;;;;;;;;;;5046316;28;20281;-63
2022/09/23 08:49:45;;;;;;;3.80;1.30;;;;;;;;;;5045983;28;20214;-63
2022/09/23 08:52:15;;;;;;;1.50;1.50;;;;;;;;;;5047889;28;20212;-64
2022/09/23 08:54:42;;;;;;;1.37;1.20;;;;;;;;;;5046453;28;20216;-64
2022/09/23 08:57:12;;;;;;;1.30;1.30;;;;;;;;;;5047890;28;20208;-64
2022/09/23 08:59:41;;;;;;;1.10;1.10;;;;;;;;;;5045903;28;20224;-64
2022/09/23 09:02:13;;;;;;;1.50;1.50;;;;;;;;;;5047484;28;20771;-64
2022/09/23 09:04:43;;;;;;;1.70;1.37;;;;;;;;;;5045910;28;20306;-64
2022/09/23 09:07:14;;;;;;;1.43;1.33;;;;;;;;;;5047646;28;20235;-64
2022/09/23 09:09:43;;;;;;;1.77;1.67;;;;;;;;;;5046111;28;20310;-64
2022/09/23 09:12:13;;;;;;;1.65;1.55;;;;;;;;;;5044585;28;20223;-65
2022/09/23 09:14:43;;;;;;;1.88;1.77;;;;;;;;;;5045468;28;20204;-65
2022/09/23 09:17:16;;;;;;;1.63;1.63;;;;;;;;;;5047149;28;20321;-65
2022/09/23 09:19:51;;;;;;;1.60;1.60;;;;;;;;;;5047400;28;20654;-66
2022/09/23 09:22:23;;;;;;;2.05;1.95;;;;;;;;;;5045370;28;20297;-66
2022/09/23 09:24:50;;;;;;;1.63;1.60;;;;;;;;;;5046445;28;20250;-66
2022/09/23 09:27:17;;;;;;;1.63;1.63;;;;;;;;;;5045221;28;20628;-66
2022/09/23 09:29:46;;;;;;;1.63;1.63;;;;;;;;;;5047676;28;20208;-66
2022/09/23 09:32:16;;;;;;;1.77;1.67;;;;;;;;;;5044553;28;20216;-66
2022/09/23 09:34:44;;;;;;;1.90;1.80;;;;;;;;;;5047293;28;20709;-66
2022/09/23 09:37:15;;;;;;;1.25;1.25;;;;;;;;;;5047303;28;20812;-66
2022/09/23 09:39:44;;;;;;;1.80;1.70;;;;;;;;;;5049510;28;20211;-63
2022/09/23 09:42:15;;;;;;;1.75;1.75;;;;;;;;;;5049000;28;20212;-66
2022/09/23 09:44:44;;;;;;;1.45;1.38;;;;;;;;;;5047803;28;20314;-67
2022/09/23 09:47:21;;;;;;;1.48;1.35;;;;;;;;;;5047312;28;20310;-66
2022/09/23 09:49:50;;;;;;;1.80;1.70;;;;;;;;;;5050759;28;20303;-66
2022/09/23 09:52:22;;;;;;;1.30;1.30;;;;;;;;;;5048963;28;20291;-66
2022/09/23 09:54:50;;;;;;;1.33;1.33;;;;;;;;;;5049541;28;20220;-66
2022/09/23 09:57:29;;;;;;;1.45;1.30;;;;;;;;;;5048800;28;20227;-67
2022/09/23 09:59:56;;;;;;;1.38;1.38;;;;;;;;;;5051010;28;20739;-66
2022/09/23 10:02:26;;;;;;;1.85;1.50;;;;;;;;;;5048340;28;20222;-66
2022/09/23 10:04:57;;;;;;;3.08;1.70;;;;;;;;;;5048991;28;20687;-66
2022/09/23 10:07:26;;;;;;;1.45;1.45;;;;;;;;;;5046899;28;20242;-66
2022/09/23 10:09:54;;;;;;;1.52;1.52;;;;;;;;;;5050166;28;20215;-66
2022/09/23 10:12:22;;;;;;;1.70;1.60;;;;;;;;;;5048561;28;20211;-66
2022/09/23 10:14:50;;;;;;;1.85;1.77;;;;;;;;;;5047344;28;20208;-66
2022/09/23 10:17:19;;;;;;;1.83;1.75;;;;;;;;;;5048771;28;20200;-66
2022/09/23 10:19:48;;;;;;;2.38;1.73;;;;;;;;;;5047948;28;20922;-66
2022/09/23 10:22:28;;;;;;;1.83;1.73;;;;;;;;;;5050554;28;20200;-66
2022/09/23 10:24:58;;;;;;;2.00;1.90;;;;;;;;;;5050263;28;20238;-66
2022/09/23 10:27:27;;;;;;;1.85;1.83;;;;;;;;;;5050349;28;20223;-64
2022/09/23 10:29:57;;;;;;;1.70;1.70;;;;;;;;;;5050335;28;20215;-66
2022/09/23 10:32:26;;;;;;;1.85;1.75;;;;;;;;;;5050433;28;20585;-66
2022/09/23 10:34:54;;;;;;;2.10;2.00;;;;;;;;;;5050131;28;20216;-66
2022/09/23 10:37:26;;;;;;;1.55;1.50;;;;;;;;;;5050383;28;20234;-66
2022/09/23 10:48:34;;;;;;;1.75;1.65;;;;;;;;;;5026443;28;20731;-66
2022/09/23 10:51:05;;;;;;;1.35;1.33;;;;;;;;;;5045791;28;20672;-65
2022/09/23 10:53:35;;;;;;;1.90;1.80;;;;;;;;;;5049986;28;20212;-65
2022/09/23 10:56:09;;;;;;;1.85;1.85;;;;;;;;;;5049547;28;20219;-63
2022/09/23 10:58:49;;;;;;;1.98;1.55;;;;;;;;;;5049743;28;20583;-63
2022/09/23 11:01:22;;;;;;;1.70;1.70;;;;;;;;;;5049793;28;20299;-66
2022/09/23 11:03:57;;;;;;;1.60;1.50;;;;;;;;;;5049519;28;20224;-63
2022/09/23 11:06:26;;;;;;;1.70;1.60;;;;;;;;;;5049257;28;20215;-63
2022/09/23 11:08:59;;;;;;;1.40;1.40;;;;;;;;;;5049531;28;20212;-63
2022/09/23 11:11:32;;;;;;;1.50;1.50;;;;;;;;;;5049634;28;20208;-66
2022/09/23 11:14:14;;;;;;;1.52;1.52;;;;;;;;;;5049797;28;20219;-66
2022/09/23 11:16:46;;;;;;;1.60;1.60;;;;;;;;;;5047283;28;20207;-65
2022/09/23 11:19:33;;;;;;;2.35;1.88;;;;;;;;;;5042895;28;20215;-66
2022/09/23 11:22:14;;;;;;;1.35;1.35;;;;;;;;;;5046170;28;20207;-65
2022/09/23 11:24:49;;;;;;;1.85;1.60;;;;;;;;;;5048812;28;20245;-68
2022/09/23 11:27:24;;;;;;;1.60;1.60;;;;;;;;;;5046215;28;20219;-63
2022/09/23 11:30:09;;;;;;;1.98;1.55;;;;;;;;;;5049014;28;20207;-66
2022/09/23 11:32:50;;;;;;;1.67;1.58;;;;;;;;;;5046705;28;20200;-61
2022/09/23 11:35:19;;;;;;;1.40;1.30;;;;;;;;;;5047157;28;20282;-66
2022/09/23 11:37:47;;;;;;;2.08;1.42;;;;;;;;;;5046174;28;20203;-65
2022/09/23 11:40:17;;;;;;;1.60;1.58;;;;;;;;;;5048688;28;20199;-65
2022/09/23 11:42:51;;;;;;;1.73;1.63;;;;;;;;;;5048765;28;20739;-66
2022/09/23 11:45:20;;;;;;;1.20;1.20;;;;;;;;;;5048445;28;21039;-65
2022/09/23 11:47:52;;;;;;;1.35;1.35;;;;;;;;;;5048481;28;20235;-65
2022/09/23 11:50:22;;;;;;;1.40;1.40;;;;;;;;;;5048391;28;20207;-66
2022/09/23 11:52:52;;;;;;;1.30;1.27;;;;;;;;;;5048244;28;20207;-63
2022/09/23 11:55:20;;;;;;;1.55;1.45;;;;;;;;;;5047403;28;20662;-63
2022/09/23 11:57:49;;;;;;;1.27;1.27;;;;;;;;;;5046921;28;20204;-66
2022/09/23 12:00:18;;;;;;;1.30;1.30;;;;;;;;;;5042713;28;20261;-66
2022/09/23 12:02:54;;;;;;;1.40;1.40;;;;;;;;;;5047417;28;20243;-67
2022/09/23 12:05:24;;;;;;;1.20;1.20;;;;;;;;;;5041547;28;20207;-67
2022/09/23 12:07:53;;;;;;;1.23;1.23;;;;;;;;;;5047282;28;20397;-67
2022/09/23 12:10:21;;;;;;;2.33;1.70;;;;;;;;;;5046703;28;20303;-66
2022/09/23 12:12:53;;;;;;;1.27;1.27;;;;;;;;;;5046915;28;20208;-66
2022/09/23 12:15:27;;;;;;;1.60;1.50;;;;;;;;;;5050385;28;20233;-66
2022/09/23 12:18:09;;;;;;;1.65;1.65;;;;;;;;;;5046522;28;20208;-67
2022/09/23 12:20:50;;;;;;;1.60;1.60;;;;;;;;;;5046978;28;20203;-66
2022/09/23 12:23:24;;;;;;;3.10;1.40;;;;;;;;;;5045639;28;20290;-67
2022/09/23 12:25:53;;;;;;;1.52;1.45;;;;;;;;;;5046474;28;20246;-66
2022/09/23 12:28:21;;;;;;;1.38;1.38;;;;;;;;;;5047312;28;20216;-67
2022/09/23 12:30:50;;;;;;;1.80;1.70;;;;;;;;;;5046847;28;20219;-67
2022/09/23 12:33:23;;;;;;;1.60;1.27;;;;;;;;;;5047416;28;20222;-67
2022/09/23 12:35:52;;;;;;;1.60;1.60;;;;;;;;;;5046782;28;20451;-66
2022/09/23 12:38:21;;;;;;;1.77;1.63;;;;;;;;;;5047344;28;20651;-67
2022/09/23 12:40:48;;;;;;;1.55;1.45;;;;;;;;;;5047585;28;20962;-67
2022/09/23 12:43:19;;;;;;;1.27;1.23;;;;;;;;;;5046552;28;20681;-67
2022/09/23 12:45:46;;;;;;;2.00;1.90;;;;;;;;;;5046447;28;20978;-66
2022/09/23 12:48:43;;;;;;;1.70;1.60;;;;;;;;;;5047336;28;20242;-67
2022/09/23 12:51:15;;;;;;;1.48;1.48;;;;;;;;;;5045542;28;20204;-67
2022/09/23 12:53:57;;;;;;;1.48;1.48;;;;;;;;;;5046146;28;20303;-66
2022/09/23 12:56:29;;;;;;;1.48;1.38;;;;;;;;;;5039143;28;20264;-67
2022/09/23 12:59:00;;;;;;;1.40;1.40;;;;;;;;;;5047238;28;20192;-67
2022/09/23 13:01:27;;;;;;;1.05;1.05;;;;;;;;;;5054877;28;20230;-66
2022/09/23 13:06:43;;;;;;;1.65;1.55;;;;;;;;;;5045263;28;20262;-66
2022/09/23 13:09:13;;;;;;;1.67;1.23;;;;;;;;;;5031161;28;20228;-68
2022/09/23 13:11:43;;;;;;;1.60;1.60;;;;;;;;;;5033779;28;20208;-67
2022/09/23 13:14:13;;;;;;;1.75;1.70;;;;;;;;;;5029473;28;20216;-65
2022/09/23 13:16:42;;;;;;;1.45;1.45;;;;;;;;;;5045693;28;20257;-68
2022/09/23 13:19:31;;;;;;;1.65;1.55;;;;;;;;;;5048672;28;20200;-67
2022/09/23 13:22:07;;;;;;;1.50;1.42;;;;;;;;;;5050810;28;20318;-68
2022/09/23 13:24:52;;;;;;;1.58;1.58;;;;;;;;;;5050589;28;20209;-67
2022/09/23 13:27:27;;;;;;;1.55;1.25;;;;;;;;;;5044079;28;20229;-68
2022/09/23 13:29:58;;;;;;;1.60;1.60;;;;;;;;;;5048123;28;20203;-65
2022/09/23 13:32:27;;;;;;;1.65;1.65;;;;;;;;;;5049431;28;20204;-64
2022/09/23 13:34:57;;;;;;;1.98;1.88;;;;;;;;;;5048395;28;20219;-63
2022/09/23 13:37:26;;;;;;;1.55;1.55;;;;;;;;;;5050498;28;20212;-64
2022/09/23 13:39:53;;;;;;;1.58;1.48;;;;;;;;;;5050124;28;20203;-62
2022/09/23 13:42:26;;;;;;;2.03;1.88;;;;;;;;;;5042309;28;20632;-63
2022/09/23 13:44:56;;;;;;;1.20;1.20;;;;;;;;;;5047524;28;20212;-63
2022/09/23 13:47:23;;;;;;;1.52;1.52;;;;;;;;;;5048058;28;20208;-62
2022/09/23 13:49:51;;;;;;;1.80;1.80;;;;;;;;;;5043361;28;20208;-60
2022/09/23 13:52:24;;;;;;;2.13;1.85;;;;;;;;;;5041690;28;20254;-60
2022/09/23 13:54:52;;;;;;;1.70;1.70;;;;;;;;;;5048427;28;20283;-61
2022/09/23 13:57:26;;;;;;;1.95;1.85;;;;;;;;;;5048822;28;20265;-61
2022/09/23 13:59:53;;;;;;;2.05;1.80;;;;;;;;;;5046957;28;20938;-61
2022/09/23 14:02:24;;;;;;;1.95;1.95;;;;;;;;;;5045206;28;20924;-62
2022/09/23 14:04:51;;;;;;;1.73;1.70;;;;;;;;;;5050110;28;20243;-59
2022/09/23 14:07:19;;;;;;;1.80;1.80;;;;;;;;;;5049110;28;20285;-60
2022/09/23 14:09:48;;;;;;;2.55;1.88;;;;;;;;;;5043781;28;20294;-61
2022/09/23 14:12:20;;;;;;;2.38;2.00;;;;;;;;;;5042972;28;20567;-61
2022/09/23 14:14:49;;;;;;;1.33;1.33;;;;;;;;;;5045992;28;20211;-62
2022/09/23 14:17:18;;;;;;;1.63;1.63;;;;;;;;;;5046469;28;20200;-60
2022/09/23 14:19:45;;;;;;;3.40;1.65;;;;;;;;;;5045423;28;20200;-63
2022/09/23 14:22:23;;;;;;;1.42;1.40;;;;;;;;;;5045863;28;20204;-60
2022/09/23 14:24:50;;;;;;;4.43;1.92;;;;;;;;;;5046870;28;20318;-60
2022/09/23 14:27:21;;;;;;;1.77;1.33;;;;;;;;;;5047087;28;20215;-61
2022/09/23 14:29:49;;;;;;;1.73;1.67;;;;;;;;;;5047117;28;20956;-60
2022/09/23 14:32:19;;;;;;;2.90;2.10;;;;;;;;;;5044372;28;20296;-61
2022/09/23 14:34:47;;;;;;;1.75;1.75;;;;;;;;;;5049243;28;20299;-61
2022/09/23 14:40:13;;;;;;;1.55;1.48;;;;;;;;;;5046122;28;20890;-61
2022/09/23 14:42:43;;;;;;;1.77;1.67;;;;;;;;;;5047106;28;20204;-60
2022/09/23 14:45:13;;;;;;;1.35;1.35;;;;;;;;;;5044403;28;20690;-61
2022/09/23 14:47:43;;;;;;;1.42;1.42;;;;;;;;;;5043423;28;20215;-61
2022/09/23 14:52:59;;;;;;;1.38;1.38;;;;;;;;;;5048752;28;20277;-61
2022/09/23 14:55:29;;;;;;;1.40;1.40;;;;;;;;;;5046797;28;20908;-61
2022/09/23 14:58:03;;;;;;;1.40;1.40;;;;;;;;;;5047293;28;20208;-61
2022/09/23 15:00:31;;;;;;;1.20;1.20;;;;;;;;;;5035657;28;20202;-60
2022/09/23 15:02:59;;;;;;;1.30;1.27;;;;;;;;;;5047947;28;20231;-61
2022/09/23 15:05:31;;;;;;;1.67;1.58;;;;;;;;;;5049698;28;20208;-61
2022/09/23 15:08:02;;;;;;;1.38;1.17;;;;;;;;;;5048286;28;20207;-61
2022/09/23 15:10:31;;;;;;;1.25;1.25;;;;;;;;;;5049578;28;20203;-60
2022/09/23 15:13:04;;;;;;;1.30;1.30;;;;;;;;;;5049229;28;20682;-61
2022/09/23 15:15:31;;;;;;;1.77;1.67;;;;;;;;;;5042213;28;20923;-62